createdAt,value
2022-08-20T00:02:16.757Z,96338.00
2022-08-20T00:04:45.298Z,96334.80
2022-08-20T00:07:14.547Z,96331.27
2022-08-20T00:09:43.715Z,96336.31
2022-08-20T00:12:16.366Z,96335.71
2022-08-20T00:14:44.552Z,96338.38
2022-08-20T00:17:12.706Z,96338.99
2022-08-20T00:19:40.897Z,96339.80
2022-08-20T00:22:09.308Z,96341.73
2022-08-20T00:24:37.791Z,96342.95
2022-08-20T00:27:06.129Z,96344.74
2022-08-20T00:29:34.622Z,96343.66
2022-08-20T00:32:03.297Z,96340.36
2022-08-20T00:34:31.581Z,96339.98
2022-08-20T00:36:59.772Z,96340.84
2022-08-20T00:39:28.360Z,96339.53
2022-08-20T00:41:56.499Z,96339.38
2022-08-20T00:44:24.950Z,96336.55
2022-08-20T00:46:53.788Z,96335.48
2022-08-20T00:49:28.324Z,96330.77
2022-08-20T00:51:59.311Z,96324.46
2022-08-20T00:54:34.926Z,96318.61
2022-08-20T00:57:10.725Z,96311.20
2022-08-20T00:59:42.163Z,96311.58
2022-08-20T01:02:14.730Z,96309.59
2022-08-20T01:04:55.610Z,96310.06
2022-08-20T01:07:35.231Z,96310.16
2022-08-20T01:10:11.845Z,96315.42
2022-08-20T01:12:43.436Z,96316.55
2022-08-20T01:15:15.657Z,96317.41
2022-08-20T01:17:46.045Z,96318.91
2022-08-20T01:20:22.872Z,96314.20
2022-08-20T01:23:26.722Z,96310.85
2022-08-20T01:26:23.399Z,96304.06
2022-08-20T01:29:14.964Z,96298.69
2022-08-20T01:31:43.751Z,96293.81
2022-08-20T01:34:15.586Z,96290.83
2022-08-20T01:36:48.568Z,96296.59
2022-08-20T01:39:24.606Z,96298.17
2022-08-20T01:41:58.187Z,96298.35
2022-08-20T01:44:27.357Z,96297.45
2022-08-20T01:46:57.504Z,96291.75
2022-08-20T01:49:30.124Z,96283.08
2022-08-20T01:52:01.410Z,96289.88
2022-08-20T01:54:29.541Z,96288.69
2022-08-20T01:57:12.474Z,96290.59
2022-08-20T01:59:41.258Z,96292.94
2022-08-20T02:02:12.946Z,96292.05
2022-08-20T02:04:42.011Z,96295.23
2022-08-20T02:07:16.421Z,96299.66
2022-08-20T02:09:45.663Z,96306.44
2022-08-20T02:12:17.598Z,96309.83
2022-08-20T02:14:51.676Z,96297.83
2022-08-20T02:17:23.287Z,96295.39
2022-08-20T02:19:57.779Z,96291.89
2022-08-20T02:22:50.468Z,96285.96
2022-08-20T02:25:23.144Z,96280.77
2022-08-20T02:27:53.977Z,96275.45
2022-08-20T02:30:28.680Z,96273.27
2022-08-20T02:32:58.736Z,96276.89
2022-08-20T02:35:28.066Z,96269.77
2022-08-20T02:37:56.656Z,96265.53
2022-08-20T02:40:31.252Z,96258.59
2022-08-20T02:43:00.958Z,96254.73
2022-08-20T02:45:31.931Z,96252.22
2022-08-20T02:48:00.102Z,96250.42
2022-08-20T02:50:28.633Z,96250.38
2022-08-20T02:52:57.121Z,96250.93
2022-08-20T02:55:28.027Z,96254.11
2022-08-20T02:57:59.219Z,96256.10
2022-08-20T03:00:38.107Z,96259.05
2022-08-20T03:03:09.041Z,96260.29
2022-08-20T03:05:42.070Z,96265.92
2022-08-20T03:08:12.556Z,96269.36
2022-08-20T03:10:43.745Z,96273.78
2022-08-20T03:13:13.592Z,96272.29
2022-08-20T03:15:44.999Z,96268.20
2022-08-20T03:18:14.754Z,96262.53
2022-08-20T03:20:46.004Z,96258.95
2022-08-20T03:23:15.050Z,96260.49
2022-08-20T03:25:44.099Z,96264.20
2022-08-20T03:28:13.823Z,96264.61
2022-08-20T03:30:42.803Z,96263.08
2022-08-20T03:33:11.067Z,96266.20
2022-08-20T03:35:39.919Z,96271.77
2022-08-20T03:38:10.938Z,96271.94
2022-08-20T03:40:39.275Z,96265.02
2022-08-20T03:43:11.649Z,96267.58
2022-08-20T03:45:41.109Z,96260.77
2022-08-20T03:48:11.497Z,96259.54
2022-08-20T03:50:42.679Z,96260.52
2022-08-20T03:53:14.768Z,96258.86
2022-08-20T03:55:54.415Z,96263.16
2022-08-20T03:58:29.872Z,96262.70
2022-08-20T04:01:06.807Z,96264.94
2022-08-20T04:03:35.655Z,96266.55
2022-08-20T04:06:04.551Z,96262.00
2022-08-20T04:08:33.588Z,96260.53
2022-08-20T04:11:02.220Z,96260.80
2022-08-20T04:13:31.506Z,96261.05
2022-08-20T04:16:04.122Z,96264.22
2022-08-20T04:18:33.263Z,96271.11
2022-08-20T04:21:01.622Z,96270.42
2022-08-20T04:23:31.353Z,96266.12
2022-08-20T04:26:00.887Z,96260.80
2022-08-20T04:28:29.071Z,96258.80
2022-08-20T04:31:01.128Z,96256.59
2022-08-20T04:33:35.167Z,96256.39
2022-08-20T04:36:06.511Z,96257.14
2022-08-20T04:38:49.622Z,96257.04
2022-08-20T04:41:24.389Z,96261.04
2022-08-20T04:43:54.531Z,96266.52
2022-08-20T04:46:28.170Z,96271.90
2022-08-20T04:48:57.830Z,96277.87
2022-08-20T04:51:26.894Z,96279.18
2022-08-20T04:53:57.532Z,96278.63
2022-08-20T04:56:29.550Z,96272.71
2022-08-20T04:58:58.926Z,96267.94
2022-08-20T05:01:28.013Z,96264.61
2022-08-20T05:03:57.973Z,96265.52
2022-08-20T05:06:31.024Z,96263.63
2022-08-20T05:09:00.753Z,96258.64
2022-08-20T05:11:35.813Z,96256.31
2022-08-20T05:14:09.226Z,96253.58
2022-08-20T05:16:39.515Z,96253.11
2022-08-20T05:19:11.486Z,96257.02
2022-08-20T05:21:41.245Z,96260.10
2022-08-20T05:24:12.346Z,96258.50
2022-08-20T05:26:40.915Z,96257.17
2022-08-20T05:29:09.119Z,96263.44
2022-08-20T05:31:38.743Z,96267.05
2022-08-20T05:34:10.966Z,96267.97
2022-08-20T05:36:46.878Z,96269.73
2022-08-20T05:39:20.744Z,96272.20
2022-08-20T05:41:51.504Z,96279.55
2022-08-20T05:44:20.033Z,96278.98
2022-08-20T05:46:48.640Z,96273.24
2022-08-20T05:49:21.444Z,96268.14
2022-08-20T05:51:51.715Z,96268.30
2022-08-20T05:54:21.460Z,96268.21
2022-08-20T05:56:50.838Z,96267.04
2022-08-20T05:59:23.535Z,96264.41
2022-08-20T06:01:53.140Z,96259.41
2022-08-20T06:04:32.253Z,96258.87
2022-08-20T06:07:07.419Z,96255.80
2022-08-20T06:09:36.517Z,96257.45
2022-08-20T06:12:09.131Z,96258.65
2022-08-20T06:14:37.511Z,96256.67
2022-08-20T06:17:09.205Z,96255.10
2022-08-20T06:19:40.038Z,96249.08
2022-08-20T06:22:20.466Z,96250.30
2022-08-20T06:24:55.674Z,96250.80
2022-08-20T06:27:24.846Z,96253.81
2022-08-20T06:29:54.037Z,96251.30
2022-08-20T06:32:31.795Z,96249.04
2022-08-20T06:35:03.638Z,96244.69
2022-08-20T06:37:33.932Z,96237.90
2022-08-20T06:40:14.710Z,96234.11
2022-08-20T06:42:48.133Z,96233.17
2022-08-20T06:45:26.495Z,96233.89
2022-08-20T06:47:58.157Z,96237.38
2022-08-20T06:50:32.856Z,96232.86
2022-08-20T06:53:01.033Z,96232.11
2022-08-20T06:55:30.124Z,96236.31
2022-08-20T06:58:00.619Z,96235.44
2022-08-20T07:00:31.974Z,96230.58
2022-08-20T07:03:01.758Z,96228.13
2022-08-20T07:05:32.615Z,96227.70
2022-08-20T07:08:01.750Z,96226.71
2022-08-20T07:10:30.688Z,96223.56
2022-08-20T07:13:00.366Z,96220.23
2022-08-20T07:15:30.445Z,96223.79
2022-08-20T07:18:01.939Z,96224.10
2022-08-20T07:20:32.887Z,96219.52
2022-08-20T07:23:01.507Z,96219.45
2022-08-20T07:25:33.829Z,96221.50
2022-08-20T07:28:08.634Z,96222.36
2022-08-20T07:30:55.978Z,96225.10
2022-08-20T07:33:28.420Z,96226.75
2022-08-20T07:35:59.077Z,96228.06
2022-08-20T07:38:30.426Z,96227.30
2022-08-20T07:41:03.658Z,96228.79
2022-08-20T07:43:33.184Z,96227.94
2022-08-20T07:46:08.599Z,96230.08
2022-08-20T07:48:42.278Z,96230.20
2022-08-20T07:51:11.160Z,96232.91
2022-08-20T07:53:40.828Z,96234.94
2022-08-20T07:56:12.808Z,96239.46
2022-08-20T07:58:49.949Z,96237.88
2022-08-20T08:01:21.358Z,96234.65
2022-08-20T08:03:51.731Z,96232.95
2022-08-20T08:06:28.523Z,96234.02
2022-08-20T08:09:07.321Z,96232.55
2022-08-20T08:11:38.300Z,96229.55
2022-08-20T08:14:09.833Z,96230.10
2022-08-20T08:16:39.454Z,96230.40
2022-08-20T08:19:12.303Z,96230.00
2022-08-20T08:21:41.694Z,96225.46
2022-08-20T08:24:14.335Z,96222.88
2022-08-20T08:26:45.293Z,96226.19
2022-08-20T08:29:13.826Z,96228.92
2022-08-20T08:31:42.697Z,96229.12
2022-08-20T08:34:11.750Z,96228.81
2022-08-20T08:36:40.688Z,96227.90
2022-08-20T08:39:08.955Z,96222.29
2022-08-20T08:41:40.215Z,96218.17
2022-08-20T08:44:24.258Z,96213.81
2022-08-20T08:47:01.683Z,96211.61
2022-08-20T08:49:37.651Z,96215.94
2022-08-20T08:52:14.991Z,96216.16
2022-08-20T08:54:49.144Z,96215.52
2022-08-20T08:57:17.595Z,96217.01
2022-08-20T09:00:03.957Z,96220.80
2022-08-20T09:02:36.466Z,96217.70
2022-08-20T09:05:17.052Z,96217.27
2022-08-20T09:07:51.314Z,96216.14
2022-08-20T09:10:23.329Z,96216.49
2022-08-20T09:12:52.575Z,96212.80
2022-08-20T09:15:21.782Z,96210.10
2022-08-20T09:17:50.323Z,96208.48
2022-08-20T09:20:18.895Z,96208.42
2022-08-20T09:22:47.170Z,96207.64
2022-08-20T09:25:17.380Z,96201.82
2022-08-20T09:27:46.174Z,96199.50
2022-08-20T09:30:18.483Z,96195.13
2022-08-20T09:32:47.103Z,96188.63
2022-08-20T09:35:16.153Z,96182.46
2022-08-20T09:37:44.387Z,96178.85
2022-08-20T09:40:14.200Z,96177.56
2022-08-20T09:42:50.622Z,96172.54
2022-08-20T09:45:19.378Z,96171.45
2022-08-20T09:47:54.836Z,96176.66
2022-08-20T09:50:28.053Z,96178.20
2022-08-20T09:52:59.491Z,96178.84
2022-08-20T09:55:44.571Z,96175.94
2022-08-20T09:58:31.243Z,96177.30
2022-08-20T10:01:04.351Z,96178.60
2022-08-20T10:03:32.599Z,96181.11
2022-08-20T10:06:00.770Z,96182.75
2022-08-20T10:08:29.402Z,96182.48
2022-08-20T10:10:57.758Z,96181.02
2022-08-20T10:13:26.062Z,96182.77
2022-08-20T10:15:54.212Z,96181.33
2022-08-20T10:18:22.397Z,96176.25
2022-08-20T10:20:50.492Z,96171.02
2022-08-20T10:23:18.675Z,96165.64
2022-08-20T10:25:46.799Z,96165.29
2022-08-20T10:28:14.970Z,96160.05
2022-08-20T10:30:45.316Z,96160.21
2022-08-20T10:33:13.391Z,96159.92
2022-08-20T10:35:41.702Z,96158.84
2022-08-20T10:38:10.272Z,96163.80
2022-08-20T10:40:38.391Z,96160.34
2022-08-20T10:43:06.620Z,96157.31
2022-08-20T10:45:34.717Z,96154.98
2022-08-20T10:48:04.706Z,96156.69
2022-08-20T10:50:32.843Z,96155.63
2022-08-20T10:53:00.926Z,96158.88
2022-08-20T10:55:29.160Z,96156.10
2022-08-20T10:57:57.891Z,96150.81
2022-08-20T11:00:27.002Z,96148.94
2022-08-20T11:02:55.553Z,96142.42
2022-08-20T11:05:24.005Z,96133.58
2022-08-20T11:07:56.140Z,96129.85
2022-08-20T11:10:27.558Z,96124.55
2022-08-20T11:12:55.852Z,96117.81
2022-08-20T11:15:24.776Z,96123.08
2022-08-20T11:17:53.691Z,96114.16
2022-08-20T11:20:25.296Z,96109.33
2022-08-20T11:22:54.719Z,96109.58
2022-08-20T11:25:22.864Z,96113.32
2022-08-20T11:27:52.650Z,96111.48
2022-08-20T11:30:28.450Z,96104.04
2022-08-20T11:32:58.844Z,96095.23
2022-08-20T11:35:48.996Z,96092.13
2022-08-20T11:38:19.608Z,96089.29
2022-08-20T11:40:47.943Z,96090.39
2022-08-20T11:43:17.475Z,96091.77
2022-08-20T11:45:50.533Z,96080.45
2022-08-20T11:48:19.147Z,96076.42
2022-08-20T11:50:48.537Z,96075.83
2022-08-20T11:53:17.098Z,96070.89
2022-08-20T11:55:46.319Z,96064.45
2022-08-20T11:58:16.101Z,96061.41
2022-08-20T12:00:44.339Z,96062.94
2022-08-20T12:03:13.152Z,96070.05
2022-08-20T12:05:44.337Z,96066.70
2022-08-20T12:08:27.319Z,96070.18
2022-08-20T12:11:01.616Z,96069.46
2022-08-20T12:13:47.405Z,96069.02
2022-08-20T12:16:20.368Z,96068.85
2022-08-20T12:18:49.071Z,96068.04
2022-08-20T12:21:17.871Z,96067.23
2022-08-20T12:23:46.324Z,96070.73
2022-08-20T12:26:16.881Z,96071.37
2022-08-20T12:28:45.008Z,96071.99
2022-08-20T12:31:13.244Z,96067.81
2022-08-20T12:33:41.551Z,96062.09
2022-08-20T12:36:09.826Z,96057.48
2022-08-20T12:38:37.974Z,96058.83
2022-08-20T12:41:06.943Z,96061.52
2022-08-20T12:43:35.166Z,96071.80
2022-08-20T12:46:03.352Z,96078.88
2022-08-20T12:48:31.492Z,96083.44
2022-08-20T12:50:59.755Z,96085.11
2022-08-20T12:53:29.447Z,96089.38
2022-08-20T12:55:57.580Z,96089.44
2022-08-20T12:58:25.757Z,96095.65
2022-08-20T13:00:54.089Z,96098.60
2022-08-20T13:03:22.249Z,96098.20
2022-08-20T13:05:50.791Z,96087.48
2022-08-20T13:08:19.700Z,96089.81
2022-08-20T13:10:48.393Z,96094.61
2022-08-20T13:13:20.998Z,96101.84
2022-08-20T13:15:51.325Z,96105.71
2022-08-20T13:18:20.899Z,96101.09
2022-08-20T13:20:49.168Z,96097.20
2022-08-20T13:23:17.763Z,96099.30
2022-08-20T13:25:46.094Z,96100.90
2022-08-20T13:28:14.215Z,96109.41
2022-08-20T13:30:42.457Z,96114.25
2022-08-20T13:33:10.636Z,96121.06
2022-08-20T13:35:38.907Z,96123.63
2022-08-20T13:38:07.115Z,96125.73
2022-08-20T13:40:35.863Z,96134.80
2022-08-20T13:43:07.113Z,96155.85
2022-08-20T13:45:39.954Z,96173.17
2022-08-20T13:48:09.951Z,96177.35
2022-08-20T13:50:47.154Z,96183.33
2022-08-20T13:53:17.495Z,96188.20
2022-08-20T13:55:46.701Z,96189.10
2022-08-20T13:58:14.918Z,96197.60
2022-08-20T14:00:43.635Z,96199.98
2022-08-20T14:03:12.686Z,96193.34
2022-08-20T14:05:42.239Z,96205.69
2022-08-20T14:08:21.446Z,96215.96
2022-08-20T14:10:51.636Z,96220.27
2022-08-20T14:13:24.130Z,96224.84
2022-08-20T14:15:52.942Z,96231.61
2022-08-20T14:18:21.160Z,96230.50
2022-08-20T14:20:49.834Z,96239.93
2022-08-20T14:23:17.970Z,96238.95
2022-08-20T14:25:49.686Z,96249.67
2022-08-20T14:28:21.145Z,96248.39
2022-08-20T14:30:53.054Z,96243.10
2022-08-20T14:33:24.152Z,96240.39
2022-08-20T14:35:53.101Z,96238.91
2022-08-20T14:38:21.862Z,96238.15
2022-08-20T14:40:50.799Z,96234.87
2022-08-20T14:43:19.775Z,96233.88
2022-08-20T14:45:48.267Z,96233.50
2022-08-20T14:48:16.632Z,96235.14
2022-08-20T14:50:45.014Z,96232.69
2022-08-20T14:53:13.142Z,96231.97
2022-08-20T14:55:41.339Z,96228.01
2022-08-20T14:58:12.168Z,96223.68
2022-08-20T15:00:40.661Z,96226.43
2022-08-20T15:03:09.222Z,96232.21
2022-08-20T15:05:39.457Z,96231.84
2022-08-20T15:08:10.737Z,96235.73
2022-08-20T15:10:39.723Z,96242.35
2022-08-20T15:13:09.112Z,96243.73
2022-08-20T15:15:37.686Z,96247.18
2022-08-20T15:18:06.536Z,96249.64
2022-08-20T15:20:36.591Z,96254.06
2022-08-20T15:23:06.366Z,96255.58
2022-08-20T15:25:36.865Z,96259.46
2022-08-20T15:28:09.074Z,96253.06
2022-08-20T15:30:40.237Z,96250.00
2022-08-20T15:33:11.441Z,96241.11
2022-08-20T15:35:39.740Z,96243.26
2022-08-20T15:38:08.403Z,96245.96
2022-08-20T15:40:37.380Z,96250.89
2022-08-20T15:43:06.186Z,96248.63
2022-08-20T15:45:35.545Z,96243.64
2022-08-20T15:48:13.467Z,96237.40
2022-08-20T15:51:04.363Z,96230.86
2022-08-20T15:53:36.165Z,96225.21
2022-08-20T15:56:20.111Z,96222.16
2022-08-20T15:59:12.283Z,96217.98
2022-08-20T16:01:58.520Z,96206.58
2022-08-20T16:04:37.441Z,96208.70
2022-08-20T16:07:26.285Z,96202.27
2022-08-20T16:10:15.881Z,96192.61
2022-08-20T16:12:49.877Z,96187.30
2022-08-20T16:15:31.815Z,96185.09
2022-08-20T16:18:06.713Z,96181.52
2022-08-20T16:20:48.584Z,96181.54
2022-08-20T16:23:20.070Z,96172.58
2022-08-20T16:26:05.402Z,96167.80
2022-08-20T16:28:41.927Z,96167.70
2022-08-20T16:31:14.873Z,96167.05
2022-08-20T16:33:54.806Z,96161.84
2022-08-20T16:36:32.450Z,96160.15
2022-08-20T16:39:20.176Z,96158.71
2022-08-20T16:41:53.655Z,96155.08
2022-08-20T16:44:39.711Z,96155.88
2022-08-20T16:47:33.488Z,96160.91
2022-08-20T16:50:12.102Z,96174.33
2022-08-20T16:52:43.840Z,96196.77
2022-08-20T16:55:13.120Z,96214.98
2022-08-20T16:57:41.523Z,96232.66
2022-08-20T17:00:21.242Z,96243.04
2022-08-20T17:02:50.845Z,96249.19
2022-08-20T17:05:20.099Z,96249.33
2022-08-20T17:07:53.112Z,96247.41
2022-08-20T17:10:26.928Z,96248.42
2022-08-20T17:13:20.712Z,96254.57
2022-08-20T17:16:02.585Z,96257.74
2022-08-20T17:18:35.302Z,96258.96
2022-08-20T17:21:23.362Z,96264.77
2022-08-20T17:23:56.814Z,96266.25
2022-08-20T17:26:28.228Z,96267.71
2022-08-20T17:28:59.830Z,96271.76
2022-08-20T17:31:38.564Z,96270.21
2022-08-20T17:34:22.711Z,96275.10
2022-08-20T17:36:55.652Z,96284.27
2022-08-20T17:39:26.740Z,96283.02
2022-08-20T17:42:08.977Z,96288.10
2022-08-20T17:44:41.893Z,96291.77
2022-08-20T17:47:18.796Z,96287.45
2022-08-20T17:50:02.154Z,96288.59
2022-08-20T17:52:39.201Z,96294.95
2022-08-20T17:55:08.750Z,96298.08
2022-08-20T17:57:40.399Z,96292.84
2022-08-20T18:00:15.700Z,96290.30
2022-08-20T18:02:44.436Z,96292.30
2022-08-20T18:05:19.198Z,96291.35
2022-08-20T18:08:09.446Z,96289.10
2022-08-20T18:11:09.996Z,96294.54
2022-08-20T18:13:57.063Z,96295.70
2022-08-20T18:16:41.171Z,96301.87
2022-08-20T18:19:24.606Z,96304.23
2022-08-20T18:22:10.194Z,96302.58
2022-08-20T18:25:06.498Z,96305.84
2022-08-20T18:27:53.145Z,96307.02
2022-08-20T18:30:25.176Z,96310.21
2022-08-20T18:33:07.677Z,96310.33
2022-08-20T18:35:44.876Z,96309.06
2022-08-20T18:38:17.430Z,96309.65
2022-08-20T18:40:45.648Z,96308.27
2022-08-20T18:43:28.046Z,96303.02
2022-08-20T18:45:56.428Z,96298.20
2022-08-20T18:48:25.959Z,96291.62
2022-08-20T18:50:57.479Z,96285.98
2022-08-20T18:53:34.394Z,96286.61
2022-08-20T18:56:07.936Z,96282.21
2022-08-20T18:59:05.783Z,96280.89
2022-08-20T19:01:37.316Z,96281.96
2022-08-20T19:04:26.686Z,96276.08
2022-08-20T19:07:00.760Z,96272.34
2022-08-20T19:10:06.661Z,96268.23
2022-08-20T19:12:45.542Z,96263.47
2022-08-20T19:15:19.242Z,96257.99
2022-08-20T19:18:07.370Z,96257.91
2022-08-20T19:20:38.886Z,96253.88
2022-08-20T19:23:14.644Z,96247.81
2022-08-20T19:25:55.695Z,96248.05
2022-08-20T19:28:41.319Z,96246.43
2022-08-20T19:31:31.919Z,96247.82
2022-08-20T19:34:21.599Z,96246.56
2022-08-20T19:37:27.561Z,96241.12
2022-08-20T19:39:52.571Z,96239.22
2022-08-20T19:42:25.770Z,96244.95
2022-08-20T19:44:55.802Z,96244.12
2022-08-20T19:47:33.729Z,96245.40
2022-08-20T19:50:36.692Z,96244.98
2022-08-20T19:53:14.124Z,96244.14
2022-08-20T19:55:42.476Z,96244.63
2022-08-20T19:58:26.423Z,96242.66
2022-08-20T20:00:56.489Z,96242.65
2022-08-20T20:03:32.983Z,96247.02
2022-08-20T20:06:21.563Z,96245.18
2022-08-20T20:09:17.722Z,96241.50
2022-08-20T20:11:58.586Z,96240.61
2022-08-20T20:14:30.757Z,96233.48
2022-08-20T20:17:00.394Z,96233.11
2022-08-20T20:19:28.851Z,96233.55
2022-08-20T20:22:19.278Z,96229.60
2022-08-20T20:25:15.562Z,96225.13
2022-08-20T20:27:53.398Z,96225.52
2022-08-20T20:30:30.750Z,96225.11
2022-08-20T20:33:03.375Z,96220.98
2022-08-20T20:35:35.889Z,96217.58
2022-08-20T20:38:08.139Z,96214.03
2022-08-20T20:40:51.182Z,96213.70
2022-08-20T20:43:33.118Z,96210.98
2022-08-20T20:46:16.185Z,96211.77
2022-08-20T20:49:05.097Z,96210.69
2022-08-20T20:51:36.723Z,96216.32
2022-08-20T20:54:21.338Z,96223.98
2022-08-20T20:57:05.836Z,96228.10
2022-08-20T20:59:35.726Z,96226.13
2022-08-20T21:02:04.879Z,96225.64
2022-08-20T21:04:33.299Z,96228.25
2022-08-20T21:07:11.476Z,96235.88
2022-08-20T21:09:41.932Z,96242.94
2022-08-20T21:12:12.475Z,96243.84
2022-08-20T21:14:41.229Z,96242.68
2022-08-20T21:17:13.197Z,96237.90
2022-08-20T21:19:45.108Z,96235.00
2022-08-20T21:22:14.506Z,96233.77
2022-08-20T21:24:42.690Z,96233.68
2022-08-20T21:27:12.391Z,96230.19
2022-08-20T21:29:41.594Z,96231.74
2022-08-20T21:32:12.410Z,96232.58
2022-08-20T21:34:41.451Z,96231.65
2022-08-20T21:37:10.274Z,96232.45
2022-08-20T21:39:40.109Z,96230.48
2022-08-20T21:42:21.137Z,96233.20
2022-08-20T21:45:00.106Z,96229.98
2022-08-20T21:47:28.365Z,96229.70
2022-08-20T21:49:57.205Z,96226.20
2022-08-20T21:52:25.393Z,96224.35
2022-08-20T21:54:54.135Z,96219.02
2022-08-20T21:57:28.411Z,96213.50
2022-08-20T21:59:58.214Z,96213.46
2022-08-20T22:02:27.451Z,96214.51
2022-08-20T22:04:55.693Z,96211.81
2022-08-20T22:07:24.010Z,96210.23
2022-08-20T22:09:52.310Z,96202.26
2022-08-20T22:12:26.995Z,96201.90
2022-08-20T22:14:55.274Z,96203.90
2022-08-20T22:17:23.583Z,96203.02
2022-08-20T22:19:51.772Z,96198.42
2022-08-20T22:22:21.553Z,96202.94
2022-08-20T22:24:49.957Z,96199.63
2022-08-20T22:27:18.229Z,96197.31
2022-08-20T22:29:46.419Z,96195.00
2022-08-20T22:32:14.877Z,96194.77
2022-08-20T22:34:43.160Z,96193.55
2022-08-20T22:37:13.710Z,96189.74
2022-08-20T22:39:41.972Z,96188.66
2022-08-20T22:42:10.630Z,96184.80
2022-08-20T22:44:38.926Z,96186.44
2022-08-20T22:47:09.170Z,96186.33
2022-08-20T22:49:40.003Z,96188.08
2022-08-20T22:52:09.278Z,96184.27
2022-08-20T22:54:38.467Z,96175.52
2022-08-20T22:57:13.758Z,96171.45
2022-08-20T22:59:46.398Z,96170.00
2022-08-20T23:02:22.988Z,96170.65
2022-08-20T23:04:51.711Z,96168.64
2022-08-20T23:07:20.122Z,96168.63
2022-08-20T23:09:48.988Z,96162.15
2022-08-20T23:12:17.335Z,96163.40
2022-08-20T23:14:45.542Z,96164.58
2022-08-20T23:17:19.192Z,96162.64
2022-08-20T23:19:50.075Z,96160.29
2022-08-20T23:22:19.468Z,96160.71
2022-08-20T23:24:47.717Z,96159.39
2022-08-20T23:27:18.835Z,96158.39
2022-08-20T23:29:47.751Z,96158.38
2022-08-20T23:32:17.374Z,96165.94
2022-08-20T23:34:45.682Z,96174.05
2022-08-20T23:37:19.104Z,96170.54
2022-08-20T23:39:47.361Z,96165.43
2022-08-20T23:42:17.025Z,96163.52
2022-08-20T23:44:45.675Z,96161.32
2022-08-20T23:47:21.570Z,96161.04
2022-08-20T23:49:50.311Z,96160.91
2022-08-20T23:52:18.823Z,96164.26
2022-08-20T23:54:47.016Z,96166.77
2022-08-20T23:57:16.487Z,96171.77
2022-08-20T23:59:52.935Z,96173.13
